Airfield :
LOGIN :

Register | Disclaimer

   EN    FR    IT 

 










Legend :    VFR   Marginal VFR   IFR   Intensive IFR   Very Intensive IFR
Visi :
Ceiling :
>= 8 km
>= 3000ft
5 to 8 km
1000 to 3000 ft
1500m to 5 km
500 to 1000 ft
800 to 1500m
200 to 500 ft
< 800m
< 200 ft
Symbols :   Thunderstorms  Fog  Heavy snow  Heavy precipitations  Wind > 20 kt
SIGMETs :     Misc.  Thunderstorms  Icing  Turbulence  Mountain Waves  Volcanic Ashes






- Airport Elevation : 665 ft
- IATA code : NOC


EIKN - Connaught / Knock- Ireland West

CURRENT METAR :
  • 221330Z 25010KT 9999 FEW006 FEW020CB BKN035 10/08 Q1021 NOSIG

EXPIRED METARs :
  • 221300Z 26005KT 230V290 9000 FEW006 FEW020CB BKN033 09/08 Q1021 NOSIG
  • 221230Z 30008KT 9999 FEW006 FEW020CB BKN029 09/09 Q1021 NOSIG
  • 221200Z 26009KT 6000 FEW006 FEW020CB BKN032 10/08 Q1021 NOSIG RMK 96015
  • 221130Z 25008KT 9999 FEW006 FEW020CB BKN032 10/09 Q1021 NOSIG
  • 221100Z 25008KT 220V300 3500 -SHRA FEW010 SCT020CB BKN034 10/08 Q1021 NOSIG

TAF TAF EIKN
Valid from the 22 at 12:00 until the 23 at 12:00 UTC


221100Z 2212/2312 25010KT 9999 FEW010 BKN035
BECMG 2217/2219 16010KT
BECMG 2302/2304 18017G27KT
PROB30
TEMPO 2303/2312 BKN012



MET'MAP, your aeronautical weather chart ! - Copyright ORBIFLY December 2007 - Disclaimer

ORBIFLY MET'MAP TEAM :

Programming & Development : Alexandra Zaïnal
Concept & original design : Baudouin d'Aumeries
Assistance for programming : Marc-Olivier Méhu
Technical & hardware support : Manuel Goepfert

Contact : metmap@orbifly.com




SOURCES & CREDITS :

   NOAA